Time,TemperatureF,DewpointF,PressureIn,WindDirection,WindDirectionDegrees,WindSpeedMPH,WindSpeedGustMPH,Humidity,HourlyPrecipIn,Conditions,Clouds,dailyrainin,SoftwareType,DateUTC
2017-06-29 00:03:00,78.0,73.1,30.09,ESE,112,3.0,5.0,85,0.00,,BKN030,0.00,VWS V15.00,2017-06-29 04:03:00,
2017-06-29 00:08:00,78.0,73.5,30.08,ESE,112,4.0,6.0,86,0.00,,BKN030,0.00,VWS V15.00,2017-06-29 04:08:00,
2017-06-29 00:13:00,78.0,73.5,30.08,South,180,5.0,6.0,86,0.00,,BKN030,0.00,VWS V15.00,2017-06-29 04:13:00,
2017-06-29 00:18:00,78.0,73.5,30.08,ESE,112,5.0,6.0,86,0.00,,BKN030,0.00,VWS V15.00,2017-06-29 04:18:00,
2017-06-29 00:23:00,78.0,73.5,30.08,ESE,112,4.0,5.0,86,0.00,,BKN030,0.00,VWS V15.00,2017-06-29 04:23:00,
2017-06-29 00:28:00,78.0,73.5,30.08,ESE,112,4.0,5.0,86,0.00,,BKN030,0.00,VWS V15.00,2017-06-29 04:28:00,
2017-06-29 00:33:00,78.0,73.5,30.08,ESE,112,1.0,3.0,86,0.00,,BKN030,0.00,VWS V15.00,2017-06-29 04:33:00,
2017-06-29 00:38:00,78.0,73.8,30.08,ESE,112,2.0,5.0,87,0.00,,BKN030,0.00,VWS V15.00,2017-06-29 04:38:00,
2017-06-29 00:43:00,78.0,73.8,30.07,ESE,112,2.0,2.0,87,0.00,,BKN030,0.00,VWS V15.00,2017-06-29 04:43:00,
2017-06-29 00:48:00,78.0,73.8,30.07,ESE,112,2.0,2.0,87,0.00,,BKN030,0.00,VWS V15.00,2017-06-29 04:48:00,
2017-06-29 00:53:00,78.0,73.8,30.07,South,180,3.0,3.0,87,0.00,,BKN030,0.00,VWS V15.00,2017-06-29 04:53:00,
2017-06-29 00:58:00,78.0,73.8,30.07,South,180,5.0,5.0,87,0.00,,BKN030,0.00,VWS V15.00,2017-06-29 04:58:00,
2017-06-29 01:03:00,78.0,73.8,30.07,ESE,112,3.0,3.0,87,0.00,,BKN220,0.00,VWS V15.00,2017-06-29 05:03:00,
2017-06-29 01:08:00,78.0,73.8,30.07,ESE,112,4.0,4.0,87,0.00,,BKN220,0.00,VWS V15.00,2017-06-29 05:08:00,
2017-06-29 01:13:00,78.0,74.2,30.08,ESE,112,4.0,4.0,88,0.00,,BKN220,0.00,VWS V15.00,2017-06-29 05:13:00,
2017-06-29 01:18:00,77.0,73.2,30.08,South,180,4.0,4.0,88,0.00,,BKN220,0.00,VWS V15.00,2017-06-29 05:18:00,
2017-06-29 01:23:00,77.0,73.2,30.07,ESE,112,3.0,3.0,88,0.00,,BKN220,0.00,VWS V15.00,2017-06-29 05:23:00,
2017-06-29 01:28:00,77.0,73.2,30.07,ESE,112,2.0,4.0,88,0.00,,BKN220,0.00,VWS V15.00,2017-06-29 05:28:00,
2017-06-29 01:33:00,77.0,73.5,30.07,South,180,2.0,3.0,89,0.00,,BKN220,0.00,VWS V15.00,2017-06-29 05:33:00,
2017-06-29 01:38:00,77.0,73.5,30.07,South,180,2.0,2.0,89,0.00,,BKN220,0.00,VWS V15.00,2017-06-29 05:38:00,
2017-06-29 01:43:00,77.0,73.5,30.06,South,180,2.0,3.0,89,0.00,,BKN220,0.00,VWS V15.00,2017-06-29 05:43:00,
2017-06-29 01:48:00,77.0,73.5,30.06,South,180,2.0,4.0,89,0.00,,BKN220,0.00,VWS V15.00,2017-06-29 05:48:00,
2017-06-29 01:53:00,77.0,73.5,30.06,South,180,3.0,3.0,89,0.00,,BKN220,0.00,VWS V15.00,2017-06-29 05:53:00,
2017-06-29 02:43:00,77.0,74.2,30.06,ESE,112,1.0,2.0,91,0.00,,BKN220,0.00,VWS V15.00,2017-06-29 06:43:00,
2017-06-29 02:48:00,77.0,74.2,30.07,South,180,3.0,3.0,91,0.00,,BKN220,0.00,VWS V15.00,2017-06-29 06:48:00,
2017-06-29 02:53:00,77.0,74.2,30.06,South,180,3.0,3.0,91,0.00,,BKN220,0.00,VWS V15.00,2017-06-29 06:53:00,
2017-06-29 02:58:00,77.0,74.2,30.06,South,180,3.0,4.0,91,0.00,,BKN220,0.00,VWS V15.00,2017-06-29 06:58:00,
2017-06-29 03:03:00,77.0,74.2,30.06,NNE,22,3.0,4.0,91,0.00,,CLR,0.00,VWS V15.00,2017-06-29 07:03:00,
2017-06-29 03:08:00,77.0,74.2,30.06,NNE,22,3.0,3.0,91,0.00,,CLR,0.00,VWS V15.00,2017-06-29 07:08:00,
2017-06-29 03:13:00,77.0,74.2,30.06,NNE,22,2.0,3.0,91,0.00,,CLR,0.00,VWS V15.00,2017-06-29 07:13:00,
2017-06-29 03:18:00,77.0,74.2,30.06,NNE,22,2.0,4.0,91,0.00,,CLR,0.00,VWS V15.00,2017-06-29 07:18:00,
2017-06-29 03:21:00,77.0,74.2,30.06,NNE,22,2.0,3.0,91,0.00,,CLR,0.00,VWS V15.00,2017-06-29 07:21:00,
2017-06-29 03:26:00,76.0,73.2,30.05,South,180,4.0,4.0,91,0.00,,CLR,0.00,VWS V15.00,2017-06-29 07:26:00,
2017-06-29 03:31:00,76.0,73.2,30.06,NNE,22,2.0,5.0,91,0.00,,CLR,0.00,VWS V15.00,2017-06-29 07:31:00,
2017-06-29 03:36:00,76.0,73.2,30.05,NNE,22,3.0,5.0,91,0.00,,CLR,0.00,VWS V15.00,2017-06-29 07:36:00,
2017-06-29 03:41:00,76.0,73.5,30.06,South,180,3.0,4.0,92,0.00,,CLR,0.00,VWS V15.00,2017-06-29 07:41:00,
2017-06-29 03:46:00,76.0,73.5,30.05,NNE,22,3.0,3.0,92,0.00,,CLR,0.00,VWS V15.00,2017-06-29 07:46:00,
2017-06-29 03:51:00,76.0,73.5,30.05,NNE,22,2.0,2.0,92,0.00,,CLR,0.00,VWS V15.00,2017-06-29 07:51:00,
2017-06-29 03:56:00,76.0,73.5,30.05,NNE,22,4.0,4.0,92,0.00,,CLR,0.00,VWS V15.00,2017-06-29 07:56:00,
2017-06-29 04:01:00,76.0,73.5,30.05,South,180,3.0,3.0,92,0.00,,CLR,0.00,VWS V15.00,2017-06-29 08:01:00,
2017-06-29 04:06:00,76.0,73.5,30.05,ESE,112,4.0,6.0,92,0.00,,CLR,0.00,VWS V15.00,2017-06-29 08:06:00,
2017-06-29 04:11:00,76.0,73.8,30.05,South,180,4.0,4.0,93,0.00,,CLR,0.00,VWS V15.00,2017-06-29 08:11:00,
2017-06-29 04:16:00,76.0,73.8,30.04,South,180,6.0,6.0,93,0.00,,CLR,0.00,VWS V15.00,2017-06-29 08:16:00,
2017-06-29 04:21:00,76.0,73.8,30.05,South,180,3.0,4.0,93,0.00,,CLR,0.00,VWS V15.00,2017-06-29 08:21:00,
2017-06-29 04:26:00,76.0,74.2,30.05,ESE,112,4.0,4.0,94,0.00,,CLR,0.00,VWS V15.00,2017-06-29 08:26:00,
2017-06-29 04:31:00,76.0,74.2,30.05,NNE,22,2.0,3.0,94,0.00,,CLR,0.00,VWS V15.00,2017-06-29 08:31:00,
2017-06-29 04:36:00,76.0,74.2,30.05,South,180,2.0,2.0,94,0.00,,CLR,0.00,VWS V15.00,2017-06-29 08:36:00,
2017-06-29 04:41:00,76.0,74.2,30.05,South,180,2.0,3.0,94,0.00,,CLR,0.00,VWS V15.00,2017-06-29 08:41:00,
2017-06-29 04:46:00,76.0,74.2,30.06,NNE,22,3.0,3.0,94,0.00,,CLR,0.00,VWS V15.00,2017-06-29 08:46:00,
2017-06-29 04:51:00,76.0,74.2,30.05,NNE,22,2.0,2.0,94,0.00,,CLR,0.00,VWS V15.00,2017-06-29 08:51:00,
2017-06-29 04:56:00,76.0,74.2,30.05,South,180,2.0,3.0,94,0.00,,CLR,0.00,VWS V15.00,2017-06-29 08:56:00,
2017-06-29 05:01:00,76.0,74.2,30.05,South,180,2.0,3.0,94,0.00,,CLR,0.00,VWS V15.00,2017-06-29 09:01:00,
2017-06-29 05:06:00,76.0,74.2,30.05,NNW,337,3.0,3.0,94,0.00,,CLR,0.00,VWS V15.00,2017-06-29 09:06:00,
2017-06-29 05:11:00,76.0,74.2,30.06,North,360,2.0,4.0,94,0.00,,CLR,0.00,VWS V15.00,2017-06-29 09:11:00,
2017-06-29 05:16:00,76.0,74.2,30.06,NNW,337,1.0,2.0,94,0.00,,CLR,0.00,VWS V15.00,2017-06-29 09:16:00,
2017-06-29 05:22:00,76.0,74.2,30.05,NNW,337,2.0,2.0,94,0.00,,CLR,0.00,VWS V15.00,2017-06-29 09:22:00,
2017-06-29 05:27:00,76.0,74.2,30.06,NNE,22,4.0,4.0,94,0.00,,CLR,0.00,VWS V15.00,2017-06-29 09:27:00,
2017-06-29 05:32:00,76.0,74.2,30.06,NNE,22,3.0,3.0,94,0.00,,CLR,0.00,VWS V15.00,2017-06-29 09:32:00,
2017-06-29 05:37:00,76.0,74.2,30.06,NNE,22,4.0,4.0,94,0.00,,CLR,0.00,VWS V15.00,2017-06-29 09:37:00,
2017-06-29 05:42:00,76.0,74.2,30.06,NNE,22,2.0,4.0,94,0.00,,CLR,0.00,VWS V15.00,2017-06-29 09:42:00,
2017-06-29 05:47:00,76.0,74.2,30.06,NNE,22,2.0,2.0,94,0.00,,CLR,0.00,VWS V15.00,2017-06-29 09:47:00,
2017-06-29 05:52:00,76.0,74.2,30.06,NNE,22,4.0,4.0,94,0.00,,CLR,0.00,VWS V15.00,2017-06-29 09:52:00,
2017-06-29 05:57:00,76.0,74.2,30.06,NNE,22,6.0,6.0,94,0.00,,CLR,0.00,VWS V15.00,2017-06-29 09:57:00,
2017-06-29 06:02:00,76.0,74.5,30.06,NNE,22,5.0,6.0,95,0.00,,FEW220,0.00,VWS V15.00,2017-06-29 10:02:00,
2017-06-29 06:07:00,76.0,74.5,30.06,NNW,337,4.0,4.0,95,0.00,,FEW220,0.00,VWS V15.00,2017-06-29 10:07:00,
2017-06-29 06:12:00,76.0,74.5,30.07,NNE,22,6.0,6.0,95,0.00,,FEW220,0.00,VWS V15.00,2017-06-29 10:12:00,
2017-06-29 06:17:00,76.0,74.5,30.06,South,180,3.0,4.0,95,0.00,,FEW220,0.00,VWS V15.00,2017-06-29 10:17:00,
2017-06-29 06:22:00,76.0,74.5,30.07,South,180,4.0,6.0,95,0.00,,FEW220,0.00,VWS V15.00,2017-06-29 10:22:00,
2017-06-29 06:27:00,76.0,74.5,30.07,NNE,22,4.0,6.0,95,0.00,,FEW220,0.00,VWS V15.00,2017-06-29 10:27:00,
2017-06-29 06:32:00,76.0,74.5,30.07,South,180,2.0,5.0,95,0.00,,FEW220,0.00,VWS V15.00,2017-06-29 10:32:00,
2017-06-29 06:37:00,76.0,74.5,30.07,ESE,112,3.0,5.0,95,0.00,,FEW220,0.00,VWS V15.00,2017-06-29 10:37:00,
2017-06-29 06:42:00,76.0,74.5,30.07,South,180,4.0,6.0,95,0.00,,FEW220,0.00,VWS V15.00,2017-06-29 10:42:00,
2017-06-29 06:47:00,76.0,74.8,30.07,South,180,4.0,6.0,96,0.00,,FEW220,0.00,VWS V15.00,2017-06-29 10:47:00,
2017-06-29 06:52:00,76.0,74.8,30.07,South,180,4.0,5.0,96,0.00,,FEW220,0.00,VWS V15.00,2017-06-29 10:52:00,
2017-06-29 06:57:00,76.0,74.8,30.08,South,180,3.0,6.0,96,0.00,,FEW220,0.00,VWS V15.00,2017-06-29 10:57:00,
2017-06-29 07:02:00,76.0,74.8,30.08,South,180,5.0,8.0,96,0.00,,FEW220,0.00,VWS V15.00,2017-06-29 11:02:00,
2017-06-29 07:07:00,76.0,74.8,30.08,ESE,112,5.0,5.0,96,0.00,,FEW220,0.00,VWS V15.00,2017-06-29 11:07:00,
2017-06-29 07:12:00,76.0,74.8,30.08,NNE,22,5.0,8.0,96,0.00,,FEW220,0.00,VWS V15.00,2017-06-29 11:12:00,
2017-06-29 07:17:00,76.0,74.8,30.08,South,180,4.0,7.0,96,0.00,,FEW220,0.00,VWS V15.00,2017-06-29 11:17:00,
2017-06-29 07:22:00,76.0,74.8,30.08,ESE,112,4.0,4.0,96,0.00,,FEW220,0.00,VWS V15.00,2017-06-29 11:22:00,
2017-06-29 07:27:00,76.0,74.8,30.08,South,180,3.0,5.0,96,0.00,,FEW220,0.00,VWS V15.00,2017-06-29 11:27:00,
2017-06-29 07:32:00,76.0,74.8,30.09,South,180,3.0,7.0,96,0.00,,FEW220,0.00,VWS V15.00,2017-06-29 11:32:00,
2017-06-29 07:38:00,76.0,74.8,30.08,ESE,112,4.0,6.0,96,0.00,,FEW220,0.00,VWS V15.00,2017-06-29 11:38:00,
2017-06-29 07:43:00,77.0,75.8,30.08,ESE,112,3.0,4.0,96,0.00,,FEW220,0.00,VWS V15.00,2017-06-29 11:43:00,
2017-06-29 07:48:00,77.0,75.8,30.09,NNE,22,5.0,6.0,96,0.00,,FEW220,0.00,VWS V15.00,2017-06-29 11:48:00,
2017-06-29 07:53:00,77.0,75.5,30.09,ESE,112,4.0,6.0,95,0.00,,FEW220,0.00,VWS V15.00,2017-06-29 11:53:00,
2017-06-29 07:58:00,77.0,75.5,30.09,NNE,22,3.0,5.0,95,0.00,,FEW220,0.00,VWS V15.00,2017-06-29 11:58:00,
2017-06-29 08:03:00,78.0,76.1,30.09,South,180,5.0,7.0,94,0.00,,BKN220,0.00,VWS V15.00,2017-06-29 12:03:00,